sensor_id;sensor_type;location;lat;lon;timestamp;temperature;humidity
55721;DHT22;41626;53.098;6.168;2022-12-11T00:00:01;0.40;99.90
55721;DHT22;41626;53.098;6.168;2022-12-11T00:02:28;0.20;99.90
55721;DHT22;41626;53.098;6.168;2022-12-11T00:04:54;0.30;99.90
55721;DHT22;41626;53.098;6.168;2022-12-11T00:07:19;0.40;99.90
55721;DHT22;41626;53.098;6.168;2022-12-11T00:09:45;0.20;99.90
55721;DHT22;41626;53.098;6.168;2022-12-11T00:12:11;0.00;99.90
55721;DHT22;41626;53.098;6.168;2022-12-11T00:14:36;0.30;99.90
55721;DHT22;41626;53.098;6.168;2022-12-11T00:17:02;0.20;99.90
55721;DHT22;41626;53.098;6.168;2022-12-11T00:19:28;0.30;99.90
55721;DHT22;41626;53.098;6.168;2022-12-11T00:21:54;0.00;99.90
55721;DHT22;41626;53.098;6.168;2022-12-11T00:24:19;0.10;99.90
55721;DHT22;41626;53.098;6.168;2022-12-11T00:26:45;0.30;99.90
55721;DHT22;41626;53.098;6.168;2022-12-11T00:29:11;0.10;99.90
55721;DHT22;41626;53.098;6.168;2022-12-11T00:31:40;0.50;99.90
55721;DHT22;41626;53.098;6.168;2022-12-11T00:34:06;0.00;99.90
55721;DHT22;41626;53.098;6.168;2022-12-11T00:36:32;0.10;99.90
55721;DHT22;41626;53.098;6.168;2022-12-11T00:38:59;0.40;99.90
55721;DHT22;41626;53.098;6.168;2022-12-11T00:41:25;0.20;99.90
55721;DHT22;41626;53.098;6.168;2022-12-11T00:43:51;0.20;99.90
55721;DHT22;41626;53.098;6.168;2022-12-11T00:46:17;0.10;99.90
55721;DHT22;41626;53.098;6.168;2022-12-11T00:48:42;0.10;99.90
55721;DHT22;41626;53.098;6.168;2022-12-11T00:51:09;0.50;99.90
55721;DHT22;41626;53.098;6.168;2022-12-11T00:53:35;0.10;99.90
55721;DHT22;41626;53.098;6.168;2022-12-11T00:56:11;0.30;99.90
55721;DHT22;41626;53.098;6.168;2022-12-11T00:58:37;0.20;99.90
55721;DHT22;41626;53.098;6.168;2022-12-11T01:01:09;0.30;99.90
55721;DHT22;41626;53.098;6.168;2022-12-11T01:03:35;0.30;99.90
55721;DHT22;41626;53.098;6.168;2022-12-11T01:06:01;0.20;99.90
55721;DHT22;41626;53.098;6.168;2022-12-11T01:08:28;0.50;99.90
55721;DHT22;41626;53.098;6.168;2022-12-11T01:11:04;0.60;99.90
55721;DHT22;41626;53.098;6.168;2022-12-11T01:13:30;0.60;99.90
55721;DHT22;41626;53.098;6.168;2022-12-11T01:15:57;0.10;99.90
55721;DHT22;41626;53.098;6.168;2022-12-11T01:18:23;0.20;99.90
55721;DHT22;41626;53.098;6.168;2022-12-11T01:20:48;0.40;99.90
55721;DHT22;41626;53.098;6.168;2022-12-11T01:23:14;0.50;99.90
55721;DHT22;41626;53.098;6.168;2022-12-11T01:25:40;0.20;99.90
55721;DHT22;41626;53.098;6.168;2022-12-11T01:28:06;0.50;99.90
55721;DHT22;41626;53.098;6.168;2022-12-11T01:30:33;0.40;99.90
55721;DHT22;41626;53.098;6.168;2022-12-11T01:32:58;0.60;99.90
55721;DHT22;41626;53.098;6.168;2022-12-11T01:35:25;0.50;99.90
55721;DHT22;41626;53.098;6.168;2022-12-11T01:37:51;0.30;99.90
55721;DHT22;41626;53.098;6.168;2022-12-11T01:40:18;0.60;99.90
55721;DHT22;41626;53.098;6.168;2022-12-11T01:42:44;0.50;99.90
55721;DHT22;41626;53.098;6.168;2022-12-11T01:45:31;0.70;99.90
55721;DHT22;41626;53.098;6.168;2022-12-11T01:50:32;0.70;99.90
55721;DHT22;41626;53.098;6.168;2022-12-11T01:52:58;0.80;99.90
55721;DHT22;41626;53.098;6.168;2022-12-11T01:55:24;0.50;99.90
55721;DHT22;41626;53.098;6.168;2022-12-11T01:57:51;0.50;99.90
55721;DHT22;41626;53.098;6.168;2022-12-11T02:00:18;0.50;99.90
55721;DHT22;41626;53.098;6.168;2022-12-11T02:02:44;0.90;99.90
55721;DHT22;41626;53.098;6.168;2022-12-11T02:05:10;0.60;99.90
55721;DHT22;41626;53.098;6.168;2022-12-11T02:08:03;0.60;99.90
55721;DHT22;41626;53.098;6.168;2022-12-11T02:10:42;0.80;99.90
55721;DHT22;41626;53.098;6.168;2022-12-11T02:13:43;0.60;99.90
55721;DHT22;41626;53.098;6.168;2022-12-11T02:16:31;0.90;99.90
55721;DHT22;41626;53.098;6.168;2022-12-11T02:21:55;0.70;99.90
55721;DHT22;41626;53.098;6.168;2022-12-11T02:24:49;0.70;99.90
55721;DHT22;41626;53.098;6.168;2022-12-11T02:28:03;0.70;99.90
55721;DHT22;41626;53.098;6.168;2022-12-11T02:30:29;0.70;99.90
55721;DHT22;41626;53.098;6.168;2022-12-11T02:32:57;0.80;99.90
55721;DHT22;41626;53.098;6.168;2022-12-11T02:35:40;1.20;99.90
55721;DHT22;41626;53.098;6.168;2022-12-11T02:38:23;0.60;99.90
55721;DHT22;41626;53.098;6.168;2022-12-11T02:40:52;0.80;99.90
55721;DHT22;41626;53.098;6.168;2022-12-11T02:43:20;0.70;99.90
55721;DHT22;41626;53.098;6.168;2022-12-11T02:45:47;0.90;99.90
55721;DHT22;41626;53.098;6.168;2022-12-11T02:48:15;0.70;99.90
55721;DHT22;41626;53.098;6.168;2022-12-11T02:50:46;0.60;99.90
55721;DHT22;41626;53.098;6.168;2022-12-11T02:53:19;0.80;99.90
55721;DHT22;41626;53.098;6.168;2022-12-11T02:55:50;0.70;99.90
55721;DHT22;41626;53.098;6.168;2022-12-11T02:58:25;1.10;99.90
55721;DHT22;41626;53.098;6.168;2022-12-11T03:00:52;1.00;99.90
55721;DHT22;41626;53.098;6.168;2022-12-11T03:03:17;0.60;99.90
55721;DHT22;41626;53.098;6.168;2022-12-11T03:05:43;0.70;99.90
55721;DHT22;41626;53.098;6.168;2022-12-11T03:08:10;0.80;99.90
55721;DHT22;41626;53.098;6.168;2022-12-11T03:10:36;0.70;99.90
55721;DHT22;41626;53.098;6.168;2022-12-11T03:13:03;0.60;99.90
55721;DHT22;41626;53.098;6.168;2022-12-11T03:18:20;1.00;99.90
55721;DHT22;41626;53.098;6.168;2022-12-11T03:21:13;0.90;99.90
55721;DHT22;41626;53.098;6.168;2022-12-11T03:24:02;0.90;99.90
55721;DHT22;41626;53.098;6.168;2022-12-11T03:26:32;0.60;99.90
55721;DHT22;41626;53.098;6.168;2022-12-11T03:29:02;1.00;99.90
55721;DHT22;41626;53.098;6.168;2022-12-11T03:31:36;0.80;99.90
55721;DHT22;41626;53.098;6.168;2022-12-11T03:34:14;0.60;99.90
55721;DHT22;41626;53.098;6.168;2022-12-11T03:36:41;1.00;99.90
55721;DHT22;41626;53.098;6.168;2022-12-11T03:39:12;0.70;99.90
55721;DHT22;41626;53.098;6.168;2022-12-11T03:41:40;1.20;99.90
55721;DHT22;41626;53.098;6.168;2022-12-11T03:44:07;1.00;99.90
55721;DHT22;41626;53.098;6.168;2022-12-11T03:46:36;0.80;99.90
55721;DHT22;41626;53.098;6.168;2022-12-11T03:49:09;0.70;99.90
55721;DHT22;41626;53.098;6.168;2022-12-11T03:51:38;0.80;99.90
55721;DHT22;41626;53.098;6.168;2022-12-11T03:54:05;1.20;99.90
55721;DHT22;41626;53.098;6.168;2022-12-11T03:56:32;1.10;99.90
55721;DHT22;41626;53.098;6.168;2022-12-11T03:58:58;0.70;99.90
55721;DHT22;41626;53.098;6.168;2022-12-11T04:01:24;1.10;99.90
55721;DHT22;41626;53.098;6.168;2022-12-11T04:03:49;1.00;99.90
55721;DHT22;41626;53.098;6.168;2022-12-11T04:06:15;1.10;99.90
55721;DHT22;41626;53.098;6.168;2022-12-11T04:08:41;1.20;99.90
55721;DHT22;41626;53.098;6.168;2022-12-11T04:11:06;1.10;99.90
55721;DHT22;41626;53.098;6.168;2022-12-11T04:13:50;0.70;99.90
55721;DHT22;41626;53.098;6.168;2022-12-11T04:16:36;1.10;99.90
55721;DHT22;41626;53.098;6.168;2022-12-11T04:19:02;0.80;99.90
55721;DHT22;41626;53.098;6.168;2022-12-11T04:21:47;1.10;99.90
55721;DHT22;41626;53.098;6.168;2022-12-11T04:24:31;1.10;99.90
55721;DHT22;41626;53.098;6.168;2022-12-11T04:26:57;1.00;99.90
55721;DHT22;41626;53.098;6.168;2022-12-11T04:29:22;1.10;99.90
55721;DHT22;41626;53.098;6.168;2022-12-11T04:31:48;1.10;99.90
55721;DHT22;41626;53.098;6.168;2022-12-11T04:34:15;1.00;99.90
55721;DHT22;41626;53.098;6.168;2022-12-11T04:36:41;1.00;99.90
55721;DHT22;41626;53.098;6.168;2022-12-11T04:39:07;0.90;99.90
55721;DHT22;41626;53.098;6.168;2022-12-11T04:41:33;1.00;99.90
55721;DHT22;41626;53.098;6.168;2022-12-11T04:43:59;1.10;99.90
55721;DHT22;41626;53.098;6.168;2022-12-11T04:46:25;1.00;99.90
55721;DHT22;41626;53.098;6.168;2022-12-11T04:48:51;0.70;99.90
55721;DHT22;41626;53.098;6.168;2022-12-11T04:51:18;0.60;99.90
55721;DHT22;41626;53.098;6.168;2022-12-11T04:53:44;0.60;99.90
55721;DHT22;41626;53.098;6.168;2022-12-11T04:56:12;0.70;99.90
55721;DHT22;41626;53.098;6.168;2022-12-11T04:58:40;1.00;99.90
55721;DHT22;41626;53.098;6.168;2022-12-11T05:01:18;1.00;99.90
55721;DHT22;41626;53.098;6.168;2022-12-11T05:03:44;0.90;99.90
55721;DHT22;41626;53.098;6.168;2022-12-11T05:06:11;0.70;99.90
55721;DHT22;41626;53.098;6.168;2022-12-11T05:08:38;1.20;99.90
55721;DHT22;41626;53.098;6.168;2022-12-11T05:11:08;0.70;99.90
55721;DHT22;41626;53.098;6.168;2022-12-11T05:13:34;0.80;99.90
55721;DHT22;41626;53.098;6.168;2022-12-11T05:16:03;0.70;99.90
55721;DHT22;41626;53.098;6.168;2022-12-11T05:18:29;1.10;99.90
55721;DHT22;41626;53.098;6.168;2022-12-11T05:21:00;1.10;99.90
55721;DHT22;41626;53.098;6.168;2022-12-11T05:23:26;1.00;99.90
55721;DHT22;41626;53.098;6.168;2022-12-11T05:25:57;0.80;99.90
55721;DHT22;41626;53.098;6.168;2022-12-11T05:28:24;0.90;99.90
55721;DHT22;41626;53.098;6.168;2022-12-11T05:31:14;0.80;99.90
55721;DHT22;41626;53.098;6.168;2022-12-11T05:33:41;1.10;99.90
55721;DHT22;41626;53.098;6.168;2022-12-11T05:36:09;1.10;99.90
55721;DHT22;41626;53.098;6.168;2022-12-11T05:38:38;1.10;99.90
55721;DHT22;41626;53.098;6.168;2022-12-11T05:41:05;1.00;99.90
55721;DHT22;41626;53.098;6.168;2022-12-11T05:43:33;1.20;99.90
55721;DHT22;41626;53.098;6.168;2022-12-11T05:46:25;1.10;99.90
55721;DHT22;41626;53.098;6.168;2022-12-11T05:48:54;0.80;99.90
55721;DHT22;41626;53.098;6.168;2022-12-11T05:51:21;1.10;99.90
55721;DHT22;41626;53.098;6.168;2022-12-11T05:53:49;1.10;99.90
55721;DHT22;41626;53.098;6.168;2022-12-11T05:56:17;1.20;99.90
55721;DHT22;41626;53.098;6.168;2022-12-11T05:58:44;0.80;99.90
55721;DHT22;41626;53.098;6.168;2022-12-11T06:01:15;0.90;99.90
55721;DHT22;41626;53.098;6.168;2022-12-11T06:03:42;0.60;99.90
55721;DHT22;41626;53.098;6.168;2022-12-11T06:06:09;1.00;99.90
55721;DHT22;41626;53.098;6.168;2022-12-11T06:08:35;0.90;99.90
55721;DHT22;41626;53.098;6.168;2022-12-11T06:11:00;0.50;99.90
55721;DHT22;41626;53.098;6.168;2022-12-11T06:13:26;1.00;99.90
55721;DHT22;41626;53.098;6.168;2022-12-11T06:15:52;1.10;99.90
55721;DHT22;41626;53.098;6.168;2022-12-11T06:18:17;0.50;99.90
55721;DHT22;41626;53.098;6.168;2022-12-11T06:20:43;0.50;99.90
55721;DHT22;41626;53.098;6.168;2022-12-11T06:23:09;1.00;99.90
55721;DHT22;41626;53.098;6.168;2022-12-11T06:25:38;1.00;99.90
55721;DHT22;41626;53.098;6.168;2022-12-11T06:28:04;0.90;99.90
55721;DHT22;41626;53.098;6.168;2022-12-11T06:30:29;0.80;99.90
55721;DHT22;41626;53.098;6.168;2022-12-11T06:32:57;0.70;99.90
55721;DHT22;41626;53.098;6.168;2022-12-11T06:35:23;0.60;99.90
55721;DHT22;41626;53.098;6.168;2022-12-11T06:37:49;0.60;99.90
55721;DHT22;41626;53.098;6.168;2022-12-11T06:40:14;1.00;99.90
55721;DHT22;41626;53.098;6.168;2022-12-11T06:42:40;0.60;99.90
55721;DHT22;41626;53.098;6.168;2022-12-11T06:45:07;0.70;99.90
55721;DHT22;41626;53.098;6.168;2022-12-11T06:47:32;0.70;99.90
55721;DHT22;41626;53.098;6.168;2022-12-11T06:49:58;0.90;99.90
55721;DHT22;41626;53.098;6.168;2022-12-11T06:52:25;1.10;99.90
55721;DHT22;41626;53.098;6.168;2022-12-11T06:54:52;0.80;99.90
55721;DHT22;41626;53.098;6.168;2022-12-11T06:57:18;1.00;99.90
55721;DHT22;41626;53.098;6.168;2022-12-11T06:59:44;0.70;99.90
55721;DHT22;41626;53.098;6.168;2022-12-11T07:02:17;0.90;99.90
55721;DHT22;41626;53.098;6.168;2022-12-11T07:04:43;0.90;99.90
55721;DHT22;41626;53.098;6.168;2022-12-11T07:07:09;0.90;99.90
55721;DHT22;41626;53.098;6.168;2022-12-11T07:09:37;1.00;99.90
55721;DHT22;41626;53.098;6.168;2022-12-11T07:12:04;1.00;99.90
55721;DHT22;41626;53.098;6.168;2022-12-11T07:14:31;1.00;99.90
55721;DHT22;41626;53.098;6.168;2022-12-11T07:16:57;1.00;99.90
55721;DHT22;41626;53.098;6.168;2022-12-11T07:19:23;0.70;99.90
55721;DHT22;41626;53.098;6.168;2022-12-11T07:21:49;0.60;99.90
55721;DHT22;41626;53.098;6.168;2022-12-11T07:24:15;0.50;99.90
55721;DHT22;41626;53.098;6.168;2022-12-11T07:26:41;0.70;99.90
55721;DHT22;41626;53.098;6.168;2022-12-11T07:29:07;1.00;99.90
55721;DHT22;41626;53.098;6.168;2022-12-11T07:31:33;0.60;99.90
55721;DHT22;41626;53.098;6.168;2022-12-11T07:34:04;0.90;99.90
55721;DHT22;41626;53.098;6.168;2022-12-11T07:36:31;0.50;99.90
55721;DHT22;41626;53.098;6.168;2022-12-11T07:38:57;0.90;99.90
55721;DHT22;41626;53.098;6.168;2022-12-11T07:41:24;0.70;99.90
55721;DHT22;41626;53.098;6.168;2022-12-11T07:43:52;1.00;99.90
55721;DHT22;41626;53.098;6.168;2022-12-11T07:46:21;1.10;99.90
55721;DHT22;41626;53.098;6.168;2022-12-11T07:48:48;0.60;99.90
55721;DHT22;41626;53.098;6.168;2022-12-11T07:51:15;0.90;99.90
55721;DHT22;41626;53.098;6.168;2022-12-11T07:53:42;0.50;99.90
55721;DHT22;41626;53.098;6.168;2022-12-11T07:56:08;0.60;99.90
55721;DHT22;41626;53.098;6.168;2022-12-11T07:58:33;0.50;99.90
55721;DHT22;41626;53.098;6.168;2022-12-11T08:01:00;0.90;99.90
55721;DHT22;41626;53.098;6.168;2022-12-11T08:03:26;1.10;99.90
55721;DHT22;41626;53.098;6.168;2022-12-11T08:05:52;1.00;99.90
55721;DHT22;41626;53.098;6.168;2022-12-11T08:08:18;0.70;99.90
55721;DHT22;41626;53.098;6.168;2022-12-11T08:10:44;0.80;99.90
55721;DHT22;41626;53.098;6.168;2022-12-11T08:13:10;1.10;99.90
55721;DHT22;41626;53.098;6.168;2022-12-11T08:15:36;1.10;99.90
55721;DHT22;41626;53.098;6.168;2022-12-11T08:18:02;1.00;99.90
55721;DHT22;41626;53.098;6.168;2022-12-11T08:20:28;1.10;99.90
55721;DHT22;41626;53.098;6.168;2022-12-11T08:22:55;0.70;99.90
55721;DHT22;41626;53.098;6.168;2022-12-11T08:25:23;0.90;99.90
55721;DHT22;41626;53.098;6.168;2022-12-11T08:27:48;1.10;99.90
55721;DHT22;41626;53.098;6.168;2022-12-11T08:30:14;1.20;99.90
55721;DHT22;41626;53.098;6.168;2022-12-11T08:32:40;0.70;99.90
55721;DHT22;41626;53.098;6.168;2022-12-11T08:35:06;1.10;99.90
55721;DHT22;41626;53.098;6.168;2022-12-11T08:37:33;0.60;99.90
55721;DHT22;41626;53.098;6.168;2022-12-11T08:39:59;0.90;99.90
55721;DHT22;41626;53.098;6.168;2022-12-11T08:42:24;0.80;99.90
55721;DHT22;41626;53.098;6.168;2022-12-11T08:44:50;0.80;99.90
55721;DHT22;41626;53.098;6.168;2022-12-11T08:47:16;0.90;99.90
55721;DHT22;41626;53.098;6.168;2022-12-11T08:49:42;1.00;99.90
55721;DHT22;41626;53.098;6.168;2022-12-11T08:52:08;0.90;99.90
55721;DHT22;41626;53.098;6.168;2022-12-11T08:54:35;0.70;99.90
55721;DHT22;41626;53.098;6.168;2022-12-11T08:57:00;0.60;99.90
55721;DHT22;41626;53.098;6.168;2022-12-11T08:59:26;1.10;99.90
55721;DHT22;41626;53.098;6.168;2022-12-11T09:01:53;1.00;99.90
55721;DHT22;41626;53.098;6.168;2022-12-11T09:04:21;1.00;99.90
55721;DHT22;41626;53.098;6.168;2022-12-11T09:06:46;1.00;99.90
55721;DHT22;41626;53.098;6.168;2022-12-11T09:09:13;0.80;99.90
55721;DHT22;41626;53.098;6.168;2022-12-11T09:11:40;0.90;99.90
55721;DHT22;41626;53.098;6.168;2022-12-11T09:14:06;1.20;99.90
55721;DHT22;41626;53.098;6.168;2022-12-11T09:16:32;1.30;99.90
55721;DHT22;41626;53.098;6.168;2022-12-11T09:18:58;0.90;99.90
55721;DHT22;41626;53.098;6.168;2022-12-11T09:21:28;1.10;99.90
55721;DHT22;41626;53.098;6.168;2022-12-11T09:23:59;1.00;99.90
55721;DHT22;41626;53.098;6.168;2022-12-11T09:26:26;1.40;99.90
55721;DHT22;41626;53.098;6.168;2022-12-11T09:28:52;1.40;99.90
55721;DHT22;41626;53.098;6.168;2022-12-11T09:33:45;1.50;99.90
55721;DHT22;41626;53.098;6.168;2022-12-11T09:36:11;1.30;99.90
55721;DHT22;41626;53.098;6.168;2022-12-11T09:38:37;1.30;99.90
55721;DHT22;41626;53.098;6.168;2022-12-11T09:41:28;1.20;99.90
55721;DHT22;41626;53.098;6.168;2022-12-11T09:44:15;1.20;99.90
55721;DHT22;41626;53.098;6.168;2022-12-11T09:46:42;1.20;99.90
55721;DHT22;41626;53.098;6.168;2022-12-11T09:49:27;1.10;99.90
55721;DHT22;41626;53.098;6.168;2022-12-11T09:54:31;1.00;99.90
55721;DHT22;41626;53.098;6.168;2022-12-11T10:03:01;1.40;99.90
55721;DHT22;41626;53.098;6.168;2022-12-11T10:05:38;1.60;99.90
55721;DHT22;41626;53.098;6.168;2022-12-11T10:08:37;1.60;99.90
55721;DHT22;41626;53.098;6.168;2022-12-11T10:16:47;1.50;99.90
55721;DHT22;41626;53.098;6.168;2022-12-11T10:19:21;1.30;99.90
55721;DHT22;41626;53.098;6.168;2022-12-11T10:21:51;1.60;99.90
55721;DHT22;41626;53.098;6.168;2022-12-11T10:24:39;1.40;99.90
55721;DHT22;41626;53.098;6.168;2022-12-11T10:27:18;1.50;99.90
55721;DHT22;41626;53.098;6.168;2022-12-11T10:29:51;1.50;99.90
55721;DHT22;41626;53.098;6.168;2022-12-11T10:32:23;1.60;99.90
55721;DHT22;41626;53.098;6.168;2022-12-11T10:35:03;1.80;99.90
55721;DHT22;41626;53.098;6.168;2022-12-11T10:37:29;1.80;99.90
55721;DHT22;41626;53.098;6.168;2022-12-11T10:39:55;1.60;99.90
55721;DHT22;41626;53.098;6.168;2022-12-11T10:42:21;1.90;99.90
55721;DHT22;41626;53.098;6.168;2022-12-11T10:45:01;1.90;99.90
55721;DHT22;41626;53.098;6.168;2022-12-11T10:47:28;1.40;99.90
55721;DHT22;41626;53.098;6.168;2022-12-11T10:49:56;1.40;99.90
55721;DHT22;41626;53.098;6.168;2022-12-11T10:52:30;1.70;99.90
55721;DHT22;41626;53.098;6.168;2022-12-11T10:55:05;1.60;99.90
55721;DHT22;41626;53.098;6.168;2022-12-11T10:57:36;1.80;99.90
55721;DHT22;41626;53.098;6.168;2022-12-11T11:00:07;1.90;99.90
55721;DHT22;41626;53.098;6.168;2022-12-11T11:02:50;2.00;99.90
55721;DHT22;41626;53.098;6.168;2022-12-11T11:08:16;1.70;99.90
55721;DHT22;41626;53.098;6.168;2022-12-11T11:10:53;1.70;99.90
55721;DHT22;41626;53.098;6.168;2022-12-11T11:13:25;2.00;99.90
55721;DHT22;41626;53.098;6.168;2022-12-11T11:16:00;1.90;99.90
55721;DHT22;41626;53.098;6.168;2022-12-11T11:18:28;1.70;99.90
55721;DHT22;41626;53.098;6.168;2022-12-11T11:20:54;1.70;99.90
55721;DHT22;41626;53.098;6.168;2022-12-11T11:23:21;1.60;99.90
55721;DHT22;41626;53.098;6.168;2022-12-11T11:25:55;2.10;99.90
55721;DHT22;41626;53.098;6.168;2022-12-11T11:28:26;1.80;99.90
55721;DHT22;41626;53.098;6.168;2022-12-11T11:31:10;1.80;99.90
55721;DHT22;41626;53.098;6.168;2022-12-11T11:33:46;2.00;99.90
55721;DHT22;41626;53.098;6.168;2022-12-11T11:36:20;1.80;99.90
55721;DHT22;41626;53.098;6.168;2022-12-11T11:39:17;1.90;99.90
55721;DHT22;41626;53.098;6.168;2022-12-11T11:41:51;1.90;99.90
55721;DHT22;41626;53.098;6.168;2022-12-11T11:44:23;2.00;99.90
55721;DHT22;41626;53.098;6.168;2022-12-11T11:47:01;1.90;99.90
55721;DHT22;41626;53.098;6.168;2022-12-11T11:49:46;2.20;99.90
55721;DHT22;41626;53.098;6.168;2022-12-11T11:52:56;1.80;99.90
55721;DHT22;41626;53.098;6.168;2022-12-11T12:00:38;2.00;99.90
55721;DHT22;41626;53.098;6.168;2022-12-11T12:03:15;2.20;99.90
55721;DHT22;41626;53.098;6.168;2022-12-11T12:05:56;1.80;99.90
55721;DHT22;41626;53.098;6.168;2022-12-11T12:14:05;1.80;99.90
55721;DHT22;41626;53.098;6.168;2022-12-11T12:19:54;2.00;99.90
55721;DHT22;41626;53.098;6.168;2022-12-11T12:22:36;2.10;99.90
55721;DHT22;41626;53.098;6.168;2022-12-11T12:30:16;2.20;99.90
55721;DHT22;41626;53.098;6.168;2022-12-11T12:35:34;2.10;99.90
55721;DHT22;41626;53.098;6.168;2022-12-11T12:46:03;2.00;99.90
55721;DHT22;41626;53.098;6.168;2022-12-11T12:48:31;2.10;99.90
55721;DHT22;41626;53.098;6.168;2022-12-11T12:50:57;2.00;99.90
55721;DHT22;41626;53.098;6.168;2022-12-11T12:53:27;2.20;99.90
55721;DHT22;41626;53.098;6.168;2022-12-11T12:55:55;2.30;99.90
55721;DHT22;41626;53.098;6.168;2022-12-11T13:00:51;2.10;99.90
55721;DHT22;41626;53.098;6.168;2022-12-11T13:03:22;2.30;99.90
55721;DHT22;41626;53.098;6.168;2022-12-11T13:06:09;2.10;99.90
55721;DHT22;41626;53.098;6.168;2022-12-11T13:08:46;2.20;99.90
55721;DHT22;41626;53.098;6.168;2022-12-11T13:11:15;1.90;99.90
55721;DHT22;41626;53.098;6.168;2022-12-11T13:14:05;1.90;99.90
55721;DHT22;41626;53.098;6.168;2022-12-11T13:16:41;2.00;99.90
55721;DHT22;41626;53.098;6.168;2022-12-11T13:19:26;2.10;99.90
55721;DHT22;41626;53.098;6.168;2022-12-11T13:24:46;2.10;99.90
55721;DHT22;41626;53.098;6.168;2022-12-11T13:27:25;2.00;99.90
55721;DHT22;41626;53.098;6.168;2022-12-11T13:30:03;2.00;99.90
55721;DHT22;41626;53.098;6.168;2022-12-11T13:32:29;2.10;99.90
55721;DHT22;41626;53.098;6.168;2022-12-11T13:35:04;2.00;99.90
55721;DHT22;41626;53.098;6.168;2022-12-11T13:37:35;2.20;99.90
55721;DHT22;41626;53.098;6.168;2022-12-11T13:40:27;2.20;99.90
55721;DHT22;41626;53.098;6.168;2022-12-11T13:43:00;2.10;99.90
55721;DHT22;41626;53.098;6.168;2022-12-11T13:45:35;2.00;99.90
55721;DHT22;41626;53.098;6.168;2022-12-11T13:48:03;2.20;99.90
55721;DHT22;41626;53.098;6.168;2022-12-11T13:50:32;2.30;99.90
55721;DHT22;41626;53.098;6.168;2022-12-11T13:53:00;2.10;99.90
55721;DHT22;41626;53.098;6.168;2022-12-11T13:55:32;2.20;99.90
55721;DHT22;41626;53.098;6.168;2022-12-11T13:57:58;2.20;99.90
55721;DHT22;41626;53.098;6.168;2022-12-11T14:00:26;1.90;99.90
55721;DHT22;41626;53.098;6.168;2022-12-11T14:02:55;2.00;99.90
55721;DHT22;41626;53.098;6.168;2022-12-11T14:05:22;1.90;99.90
55721;DHT22;41626;53.098;6.168;2022-12-11T14:07:51;1.80;99.90
55721;DHT22;41626;53.098;6.168;2022-12-11T14:10:20;1.90;99.90
55721;DHT22;41626;53.098;6.168;2022-12-11T14:15:18;1.90;99.90
55721;DHT22;41626;53.098;6.168;2022-12-11T14:17:45;1.90;99.90
55721;DHT22;41626;53.098;6.168;2022-12-11T14:20:31;1.80;99.90
55721;DHT22;41626;53.098;6.168;2022-12-11T14:23:16;1.80;99.90
55721;DHT22;41626;53.098;6.168;2022-12-11T14:25:50;1.60;99.90
55721;DHT22;41626;53.098;6.168;2022-12-11T14:28:16;1.70;99.90
55721;DHT22;41626;53.098;6.168;2022-12-11T14:30:50;1.70;99.90
55721;DHT22;41626;53.098;6.168;2022-12-11T14:33:18;1.70;99.90
55721;DHT22;41626;53.098;6.168;2022-12-11T14:35:46;1.60;99.90
55721;DHT22;41626;53.098;6.168;2022-12-11T14:38:19;1.60;99.90
55721;DHT22;41626;53.098;6.168;2022-12-11T14:40:49;1.70;99.90
55721;DHT22;41626;53.098;6.168;2022-12-11T14:43:37;1.60;99.90
55721;DHT22;41626;53.098;6.168;2022-12-11T14:46:09;1.80;99.90
55721;DHT22;41626;53.098;6.168;2022-12-11T14:48:45;1.60;99.90
55721;DHT22;41626;53.098;6.168;2022-12-11T14:51:15;1.70;99.90
55721;DHT22;41626;53.098;6.168;2022-12-11T14:53:49;1.70;99.90
55721;DHT22;41626;53.098;6.168;2022-12-11T14:56:21;1.70;99.90
55721;DHT22;41626;53.098;6.168;2022-12-11T14:59:18;1.70;99.90
55721;DHT22;41626;53.098;6.168;2022-12-11T15:01:56;1.60;99.90
55721;DHT22;41626;53.098;6.168;2022-12-11T15:04:27;1.60;99.90
55721;DHT22;41626;53.098;6.168;2022-12-11T15:06:52;1.60;99.90
55721;DHT22;41626;53.098;6.168;2022-12-11T15:09:35;1.70;99.90
55721;DHT22;41626;53.098;6.168;2022-12-11T15:12:13;1.70;99.90
55721;DHT22;41626;53.098;6.168;2022-12-11T15:17:16;1.60;99.90
55721;DHT22;41626;53.098;6.168;2022-12-11T15:19:47;1.70;99.90
55721;DHT22;41626;53.098;6.168;2022-12-11T15:22:16;1.60;99.90
55721;DHT22;41626;53.098;6.168;2022-12-11T15:24:43;1.40;99.90
55721;DHT22;41626;53.098;6.168;2022-12-11T15:29:55;1.40;99.90
55721;DHT22;41626;53.098;6.168;2022-12-11T15:32:21;1.50;99.90
55721;DHT22;41626;53.098;6.168;2022-12-11T15:34:58;1.50;99.90
55721;DHT22;41626;53.098;6.168;2022-12-11T15:39:54;1.40;99.90
55721;DHT22;41626;53.098;6.168;2022-12-11T15:42:34;1.30;99.90
55721;DHT22;41626;53.098;6.168;2022-12-11T15:45:01;1.40;99.90
55721;DHT22;41626;53.098;6.168;2022-12-11T15:47:30;1.40;99.90
55721;DHT22;41626;53.098;6.168;2022-12-11T15:50:01;1.50;99.90
55721;DHT22;41626;53.098;6.168;2022-12-11T15:52:27;1.30;99.90
55721;DHT22;41626;53.098;6.168;2022-12-11T15:54:53;1.20;99.90
55721;DHT22;41626;53.098;6.168;2022-12-11T15:57:20;1.30;99.90
55721;DHT22;41626;53.098;6.168;2022-12-11T15:59:49;1.30;99.90
55721;DHT22;41626;53.098;6.168;2022-12-11T16:02:15;1.30;99.90
55721;DHT22;41626;53.098;6.168;2022-12-11T16:04:42;1.50;99.90
55721;DHT22;41626;53.098;6.168;2022-12-11T16:07:18;1.30;99.90
55721;DHT22;41626;53.098;6.168;2022-12-11T16:09:45;1.40;99.90
55721;DHT22;41626;53.098;6.168;2022-12-11T16:12:11;1.40;99.90
55721;DHT22;41626;53.098;6.168;2022-12-11T16:14:39;1.40;99.90
55721;DHT22;41626;53.098;6.168;2022-12-11T16:17:06;1.60;99.90
55721;DHT22;41626;53.098;6.168;2022-12-11T16:19:32;1.40;99.90
55721;DHT22;41626;53.098;6.168;2022-12-11T16:21:58;1.40;99.90
55721;DHT22;41626;53.098;6.168;2022-12-11T16:24:24;1.40;99.90
55721;DHT22;41626;53.098;6.168;2022-12-11T16:26:50;1.40;99.90
55721;DHT22;41626;53.098;6.168;2022-12-11T16:29:16;1.60;99.90
55721;DHT22;41626;53.098;6.168;2022-12-11T16:31:42;1.60;99.90
55721;DHT22;41626;53.098;6.168;2022-12-11T16:34:08;1.50;99.90
55721;DHT22;41626;53.098;6.168;2022-12-11T16:36:33;1.30;99.90
55721;DHT22;41626;53.098;6.168;2022-12-11T16:38:59;1.50;99.90
55721;DHT22;41626;53.098;6.168;2022-12-11T16:41:25;1.50;99.90
55721;DHT22;41626;53.098;6.168;2022-12-11T16:43:50;1.50;99.90
55721;DHT22;41626;53.098;6.168;2022-12-11T16:46:21;1.30;99.90
55721;DHT22;41626;53.098;6.168;2022-12-11T16:48:47;1.20;99.90
55721;DHT22;41626;53.098;6.168;2022-12-11T16:51:13;1.20;99.90
55721;DHT22;41626;53.098;6.168;2022-12-11T16:53:39;1.30;99.90
55721;DHT22;41626;53.098;6.168;2022-12-11T16:56:06;1.10;99.90
55721;DHT22;41626;53.098;6.168;2022-12-11T16:58:32;1.10;99.90
55721;DHT22;41626;53.098;6.168;2022-12-11T17:00:58;1.00;99.90
55721;DHT22;41626;53.098;6.168;2022-12-11T17:03:30;0.90;99.90
55721;DHT22;41626;53.098;6.168;2022-12-11T17:05:56;0.80;99.90
55721;DHT22;41626;53.098;6.168;2022-12-11T17:08:22;0.90;99.90
55721;DHT22;41626;53.098;6.168;2022-12-11T17:10:49;0.90;99.90
55721;DHT22;41626;53.098;6.168;2022-12-11T17:13:15;0.80;99.90
55721;DHT22;41626;53.098;6.168;2022-12-11T17:15:42;0.90;99.90